createdAt,value
2022-09-01T00:01:29.107Z,2.17
2022-09-01T00:04:04.636Z,1.80
2022-09-01T00:06:34.591Z,1.90
2022-09-01T00:09:04.809Z,1.97
2022-09-01T00:11:33.037Z,1.83
2022-09-01T00:14:01.790Z,2.00
2022-09-01T00:16:30.742Z,1.90
2022-09-01T00:19:00.213Z,2.20
2022-09-01T00:21:29.694Z,1.77
2022-09-01T00:23:58.376Z,2.10
2022-09-01T00:26:26.327Z,2.00
2022-09-01T00:28:54.573Z,1.77
2022-09-01T00:31:22.605Z,2.00
2022-09-01T00:33:50.898Z,1.97
2022-09-01T00:36:20.465Z,1.80
2022-09-01T00:38:48.472Z,1.90
2022-09-01T00:41:16.770Z,2.03
2022-09-01T00:43:45.585Z,1.77
2022-09-01T00:46:15.263Z,1.90
2022-09-01T00:48:48.817Z,1.80
2022-09-01T00:51:16.771Z,1.63
2022-09-01T00:53:46.145Z,2.03
2022-09-01T00:56:14.404Z,1.80
2022-09-01T00:58:42.543Z,1.70
2022-09-01T01:01:11.002Z,1.93
2022-09-01T01:03:39.285Z,1.90
2022-09-01T01:06:09.085Z,1.90
2022-09-01T01:08:38.226Z,1.90
2022-09-01T01:11:09.149Z,2.10
2022-09-01T01:13:48.760Z,2.00
2022-09-01T01:16:16.917Z,2.00
2022-09-01T01:18:44.938Z,1.97
2022-09-01T01:21:34.408Z,1.90
2022-09-01T01:24:03.979Z,2.00
2022-09-01T01:26:33.468Z,1.90
2022-09-01T01:29:02.945Z,1.90
2022-09-01T01:31:32.585Z,1.90
2022-09-01T01:34:01.818Z,1.90
2022-09-01T01:36:32.318Z,2.10
2022-09-01T01:39:06.013Z,1.90
2022-09-01T01:41:40.899Z,1.80
2022-09-01T01:44:09.699Z,1.87
2022-09-01T01:46:37.958Z,1.90
2022-09-01T01:49:05.917Z,1.90
2022-09-01T01:51:34.322Z,2.00
2022-09-01T01:54:05.534Z,2.00
2022-09-01T01:56:35.833Z,1.87
2022-09-01T01:59:05.183Z,2.00
2022-09-01T02:01:36.211Z,2.10
2022-09-01T02:04:05.664Z,1.90
2022-09-01T02:06:34.579Z,1.90
2022-09-01T02:09:04.400Z,2.17
2022-09-01T02:11:33.630Z,1.90
2022-09-01T02:14:02.046Z,2.00
2022-09-01T02:16:32.919Z,2.10
2022-09-01T02:19:04.124Z,1.90
2022-09-01T02:21:32.136Z,1.90
2022-09-01T02:24:02.145Z,1.80
2022-09-01T02:26:33.317Z,1.80
2022-09-01T02:29:04.722Z,2.00
2022-09-01T02:31:35.423Z,1.73
2022-09-01T02:34:03.736Z,2.03
2022-09-01T02:36:35.016Z,2.10
2022-09-01T02:39:03.717Z,1.87
2022-09-01T02:41:34.370Z,1.87
2022-09-01T02:44:03.926Z,1.87
2022-09-01T02:46:32.239Z,1.80
2022-09-01T02:49:04.392Z,1.70
2022-09-01T02:51:33.335Z,1.83
2022-09-01T02:54:01.893Z,1.77
2022-09-01T02:56:30.098Z,2.07
2022-09-01T02:58:58.126Z,1.80
2022-09-01T03:01:31.305Z,2.00
2022-09-01T03:04:03.133Z,1.70
2022-09-01T03:06:34.270Z,2.03
2022-09-01T03:09:02.747Z,2.10
2022-09-01T03:11:31.953Z,1.77
2022-09-01T03:13:59.981Z,1.90
2022-09-01T03:16:30.481Z,1.90
2022-09-01T03:18:58.840Z,2.00
2022-09-01T03:21:29.531Z,1.70
2022-09-01T03:23:58.191Z,1.83
2022-09-01T03:26:26.352Z,2.10
2022-09-01T03:28:55.020Z,1.80
2022-09-01T03:31:27.364Z,1.80
2022-09-01T03:34:00.666Z,1.83
2022-09-01T03:36:34.807Z,2.13
2022-09-01T03:39:02.840Z,1.83
2022-09-01T03:41:32.722Z,1.73
2022-09-01T03:44:00.946Z,2.00
2022-09-01T03:46:36.615Z,2.00
2022-09-01T03:49:07.021Z,1.90
2022-09-01T03:51:39.088Z,1.70
2022-09-01T03:54:08.500Z,2.33
2022-09-01T03:56:39.009Z,3.67
2022-09-01T03:59:07.639Z,3.30
2022-09-01T04:01:43.724Z,3.53
2022-09-01T04:04:13.781Z,3.20
2022-09-01T04:06:43.721Z,4.20
2022-09-01T04:09:12.013Z,4.90
2022-09-01T04:11:46.242Z,4.70
2022-09-01T04:14:17.882Z,7.13
2022-09-01T04:17:05.559Z,9.13
2022-09-01T04:19:36.694Z,8.13
2022-09-01T04:22:07.788Z,6.67
2022-09-01T04:24:45.586Z,6.33
2022-09-01T04:27:13.926Z,6.47
2022-09-01T04:29:42.888Z,7.00
2022-09-01T04:32:12.706Z,7.93
2022-09-01T04:34:43.411Z,7.57
2022-09-01T04:37:18.158Z,5.93
2022-09-01T04:39:55.647Z,7.23
2022-09-01T04:42:25.048Z,6.70
2022-09-01T04:44:53.792Z,4.90
2022-09-01T04:47:30.179Z,4.97
2022-09-01T04:50:12.861Z,6.40
2022-09-01T04:52:43.021Z,4.83
2022-09-01T04:55:20.702Z,7.40
2022-09-01T04:57:49.815Z,7.23
2022-09-01T05:00:23.337Z,5.30
2022-09-01T05:02:53.287Z,5.93
2022-09-01T05:05:22.200Z,6.37
2022-09-01T05:07:55.415Z,4.97
2022-09-01T05:10:29.802Z,5.63
2022-09-01T05:13:21.109Z,4.93
2022-09-01T05:15:49.359Z,5.63
2022-09-01T05:18:23.363Z,4.70
2022-09-01T05:20:52.331Z,4.60
2022-09-01T05:23:22.636Z,4.90
2022-09-01T05:25:54.761Z,4.63
2022-09-01T05:28:25.212Z,4.70
2022-09-01T05:30:54.250Z,4.40
2022-09-01T05:33:23.378Z,4.57
2022-09-01T05:35:56.420Z,4.37
2022-09-01T05:38:25.859Z,4.43
2022-09-01T05:40:58.854Z,4.53
2022-09-01T05:43:30.765Z,4.80
2022-09-01T05:46:06.548Z,3.67
2022-09-01T05:48:40.033Z,4.30
2022-09-01T05:51:27.454Z,4.17
2022-09-01T05:54:00.102Z,3.83
2022-09-01T05:56:30.059Z,4.40
2022-09-01T06:01:50.493Z,3.70
2022-09-01T06:04:20.036Z,4.20
2022-09-01T06:07:05.388Z,4.20
2022-09-01T06:09:38.143Z,3.80
2022-09-01T06:12:06.605Z,3.97
2022-09-01T06:14:35.835Z,3.63
2022-09-01T06:17:04.434Z,3.60
2022-09-01T06:19:36.947Z,3.37
2022-09-01T06:22:05.759Z,3.77
2022-09-01T06:24:37.885Z,3.67
2022-09-01T06:27:09.760Z,3.07
2022-09-01T06:29:39.632Z,3.77
2022-09-01T06:32:09.732Z,3.73
2022-09-01T06:34:39.665Z,3.43
2022-09-01T06:37:08.058Z,3.63
2022-09-01T06:39:37.522Z,3.30
2022-09-01T06:42:06.713Z,3.33
2022-09-01T06:44:47.283Z,3.20
2022-09-01T06:47:15.757Z,3.13
2022-09-01T06:49:44.790Z,3.17
2022-09-01T06:52:20.790Z,3.10
2022-09-01T06:54:52.102Z,3.00
2022-09-01T07:00:18.785Z,3.37
2022-09-01T07:02:48.962Z,3.33
2022-09-01T07:06:03.025Z,2.77
2022-09-01T07:12:27.931Z,3.13
2022-09-01T07:17:48.994Z,2.90
2022-09-01T07:20:25.284Z,3.13
2022-09-01T07:23:10.172Z,2.77
2022-09-01T07:26:01.300Z,2.90
2022-09-01T07:28:42.658Z,2.80
2022-09-01T07:38:47.277Z,3.00
2022-09-01T07:39:52.086Z,2.80
2022-09-01T07:45:59.192Z,2.77
2022-09-01T07:51:36.756Z,3.10
2022-09-01T07:54:05.723Z,2.93
2022-09-01T07:56:37.729Z,2.93
2022-09-01T07:59:09.373Z,2.60
2022-09-01T08:01:51.100Z,2.70
2022-09-01T08:04:22.981Z,2.63
2022-09-01T08:06:51.451Z,3.07
2022-09-01T08:09:37.874Z,2.60
2022-09-01T08:12:08.425Z,2.83
2022-09-01T08:14:42.798Z,2.90
2022-09-01T08:20:06.211Z,2.60
2022-09-01T08:22:48.635Z,2.93
2022-09-01T08:25:24.789Z,2.20
2022-09-01T08:27:59.741Z,2.60
2022-09-01T08:30:28.746Z,2.90
2022-09-01T08:32:58.657Z,2.60
2022-09-01T08:35:29.404Z,2.47
2022-09-01T08:37:59.392Z,2.60
2022-09-01T08:40:28.186Z,2.70
2022-09-01T08:43:01.412Z,2.50
2022-09-01T08:45:31.714Z,2.67
2022-09-01T08:48:57.298Z,2.80
2022-09-01T08:51:00.518Z,2.70
2022-09-01T08:53:45.810Z,2.33
2022-09-01T08:56:14.063Z,2.47
2022-09-01T08:58:42.679Z,2.43
2022-09-01T09:01:37.528Z,2.33
2022-09-01T09:04:14.626Z,2.57
2022-09-01T09:06:46.487Z,2.30
2022-09-01T09:09:14.445Z,2.60
2022-09-01T09:11:55.502Z,2.33
2022-09-01T09:14:39.314Z,2.70
2022-09-01T09:17:07.300Z,2.50
2022-09-01T09:19:37.526Z,2.40
2022-09-01T09:22:07.009Z,2.20
2022-09-01T09:24:48.302Z,2.33
2022-09-01T09:27:20.792Z,2.20
2022-09-01T09:29:50.867Z,2.30
2022-09-01T09:32:44.925Z,2.20
2022-09-01T09:35:19.287Z,2.43
2022-09-01T09:37:47.251Z,2.10
2022-09-01T09:40:16.143Z,2.40
2022-09-01T09:43:02.507Z,2.40
2022-09-01T09:45:33.830Z,1.98
2022-09-01T09:48:02.583Z,2.40
2022-09-01T09:50:32.651Z,2.50
2022-09-01T09:53:16.197Z,2.20
2022-09-01T09:55:59.070Z,2.27
2022-09-01T09:58:28.975Z,2.30
2022-09-01T10:01:06.516Z,2.60
2022-09-01T10:03:37.011Z,2.20
2022-09-01T10:06:07.240Z,2.30
2022-09-01T10:08:44.652Z,2.20
2022-09-01T10:11:32.850Z,2.80
2022-09-01T10:14:03.463Z,2.33
2022-09-01T10:16:32.784Z,2.10
2022-09-01T10:19:01.777Z,2.30
2022-09-01T10:21:33.997Z,2.50
2022-09-01T10:24:21.205Z,2.40
2022-09-01T10:26:52.094Z,2.50
2022-09-01T10:29:22.015Z,2.10
2022-09-01T10:31:56.070Z,2.33
2022-09-01T10:34:41.979Z,2.17
2022-09-01T10:37:11.801Z,2.20
2022-09-01T10:40:11.666Z,2.30
2022-09-01T10:42:45.307Z,2.03
2022-09-01T10:45:23.078Z,2.60
2022-09-01T10:47:51.164Z,2.30
2022-09-01T10:50:29.406Z,2.27
2022-09-01T10:53:06.315Z,2.10
2022-09-01T10:55:38.299Z,2.07
2022-09-01T11:02:23.088Z,2.40
2022-09-01T11:05:19.208Z,2.20
2022-09-01T11:08:14.724Z,2.47
2022-09-01T11:10:41.394Z,2.30
2022-09-01T11:13:32.621Z,2.43
2022-09-01T11:19:34.791Z,2.50
2022-09-01T11:22:13.100Z,2.10
2022-09-01T11:25:00.248Z,2.30
2022-09-01T11:27:58.642Z,2.47
2022-09-01T11:30:33.146Z,2.17
2022-09-01T11:33:14.237Z,2.23
2022-09-01T11:35:42.223Z,1.90
2022-09-01T11:38:10.452Z,2.20
2022-09-01T11:40:38.434Z,2.13
2022-09-01T11:43:12.439Z,2.27
2022-09-01T11:45:44.121Z,2.40
2022-09-01T11:48:12.957Z,2.20
2022-09-01T11:50:41.852Z,2.10
2022-09-01T11:53:11.568Z,2.20
2022-09-01T11:55:41.154Z,2.37
2022-09-01T11:58:17.669Z,2.10
2022-09-01T12:00:45.963Z,2.03
2022-09-01T12:03:21.837Z,2.17
2022-09-01T12:05:54.522Z,2.07
2022-09-01T12:08:24.001Z,2.30
2022-09-01T12:10:54.824Z,2.10
2022-09-01T12:13:24.970Z,2.10
2022-09-01T12:16:16.350Z,2.20
2022-09-01T12:18:47.334Z,2.20
2022-09-01T12:21:20.420Z,2.10
2022-09-01T12:23:48.480Z,2.40
2022-09-01T12:26:17.638Z,2.20
2022-09-01T12:28:48.858Z,2.30
2022-09-01T12:31:18.246Z,2.10
2022-09-01T12:33:46.305Z,2.07
2022-09-01T12:36:25.428Z,2.20
2022-09-01T12:38:53.893Z,2.23
2022-09-01T12:41:28.691Z,1.80
2022-09-01T12:43:58.451Z,1.93
2022-09-01T12:46:42.328Z,2.40
2022-09-01T12:49:20.298Z,2.33
2022-09-01T12:51:48.687Z,2.10
2022-09-01T12:54:16.781Z,1.93
2022-09-01T12:56:49.152Z,2.43
2022-09-01T12:59:32.013Z,2.20
2022-09-01T13:02:28.837Z,1.80
2022-09-01T13:04:57.279Z,2.23
2022-09-01T13:07:25.293Z,1.97
2022-09-01T13:09:53.302Z,2.00
2022-09-01T13:12:21.909Z,1.90
2022-09-01T13:14:51.324Z,2.27
2022-09-01T13:17:20.230Z,2.43
2022-09-01T13:19:48.177Z,2.10
2022-09-01T13:22:16.125Z,2.20
2022-09-01T13:24:44.138Z,1.90
2022-09-01T13:27:21.060Z,1.90
2022-09-01T13:29:51.252Z,2.00
2022-09-01T13:32:21.398Z,2.00
2022-09-01T13:34:51.530Z,2.00
2022-09-01T13:37:20.278Z,1.90
2022-09-01T13:39:48.499Z,2.10
2022-09-01T13:42:16.781Z,2.13
2022-09-01T13:44:45.238Z,1.90
2022-09-01T13:47:31.074Z,2.03
2022-09-01T13:50:09.671Z,1.97
2022-09-01T13:52:39.035Z,2.00
2022-09-01T13:55:07.882Z,2.00
2022-09-01T13:57:36.864Z,2.00
2022-09-01T14:00:07.629Z,2.13
2022-09-01T14:02:40.023Z,1.90
2022-09-01T14:05:08.897Z,1.70
2022-09-01T14:07:37.107Z,1.90
2022-09-01T14:10:07.277Z,1.90
2022-09-01T14:12:35.442Z,2.00
2022-09-01T14:15:14.128Z,1.80
2022-09-01T14:17:45.316Z,2.00
2022-09-01T14:20:14.728Z,1.90
2022-09-01T14:22:42.755Z,1.93
2022-09-01T14:25:12.061Z,1.97
2022-09-01T14:27:41.020Z,2.00
2022-09-01T14:30:10.452Z,1.90
2022-09-01T14:32:38.415Z,2.00
2022-09-01T14:35:09.055Z,1.90
2022-09-01T14:37:38.264Z,2.20
2022-09-01T14:40:08.174Z,1.90
2022-09-01T14:42:37.115Z,1.60
2022-09-01T14:45:05.534Z,1.80
2022-09-01T14:47:33.514Z,2.00
2022-09-01T14:50:02.996Z,2.17
2022-09-01T14:52:32.351Z,1.77
2022-09-01T14:55:00.702Z,2.00
2022-09-01T14:57:30.833Z,1.80
2022-09-01T15:00:07.396Z,2.07
2022-09-01T15:02:36.126Z,1.80
2022-09-01T15:05:04.339Z,1.97
2022-09-01T15:07:33.717Z,1.90
2022-09-01T15:10:01.737Z,2.10
2022-09-01T15:12:30.920Z,2.00
2022-09-01T15:14:59.015Z,1.90
2022-09-01T15:17:27.028Z,2.03
2022-09-01T15:19:55.107Z,3.07
2022-09-01T15:22:23.091Z,2.00
2022-09-01T15:24:52.400Z,2.50
2022-09-01T15:27:20.463Z,2.57
2022-09-01T15:29:49.556Z,2.50
2022-09-01T15:32:27.618Z,2.40
2022-09-01T15:34:56.574Z,2.63
2022-09-01T15:37:24.557Z,2.83
2022-09-01T15:39:54.188Z,2.83
2022-09-01T15:42:22.153Z,2.63
2022-09-01T15:44:50.139Z,2.90
2022-09-01T15:47:18.151Z,3.00
2022-09-01T15:49:46.142Z,3.20
2022-09-01T15:52:15.476Z,2.70
2022-09-01T15:54:43.458Z,3.00
2022-09-01T15:57:12.928Z,3.20
2022-09-01T15:59:42.986Z,3.00
2022-09-01T16:02:15.216Z,3.10
2022-09-01T16:04:43.267Z,2.97
2022-09-01T16:07:11.246Z,3.07
2022-09-01T16:09:39.260Z,2.80
2022-09-01T16:12:07.817Z,2.80
2022-09-01T16:14:37.166Z,2.90
2022-09-01T16:17:06.467Z,3.40
2022-09-01T16:19:42.882Z,2.87
2022-09-01T16:22:17.134Z,2.80
2022-09-01T16:24:46.054Z,2.97
2022-09-01T16:27:15.518Z,3.13
2022-09-01T16:29:47.126Z,3.20
2022-09-01T16:32:15.136Z,2.57
2022-09-01T16:34:46.645Z,3.00
2022-09-01T16:37:21.012Z,2.70
2022-09-01T16:39:51.062Z,2.63
2022-09-01T16:42:28.014Z,2.83
2022-09-01T16:45:04.874Z,3.10
2022-09-01T16:47:46.805Z,2.70
2022-09-01T16:50:20.215Z,2.50
2022-09-01T16:53:04.044Z,2.50
2022-09-01T16:55:36.988Z,2.87
2022-09-01T16:58:12.693Z,2.90
2022-09-01T17:00:44.946Z,3.30
2022-09-01T17:03:17.547Z,3.13
2022-09-01T17:05:52.952Z,2.90
2022-09-01T17:08:22.454Z,2.90
2022-09-01T17:10:54.050Z,2.93
2022-09-01T17:13:24.282Z,3.00
2022-09-01T17:16:02.561Z,3.33
2022-09-01T17:18:33.443Z,2.60
2022-09-01T17:21:03.931Z,2.90
2022-09-01T17:23:36.019Z,3.37
2022-09-01T17:26:04.808Z,5.10
2022-09-01T17:28:35.664Z,2.90
2022-09-01T17:31:14.261Z,3.07
2022-09-01T17:33:52.634Z,3.50
2022-09-01T17:36:23.924Z,2.80
2022-09-01T17:38:55.219Z,3.67
2022-09-01T17:41:30.183Z,3.07
2022-09-01T17:43:59.988Z,2.80
2022-09-01T17:46:32.102Z,3.63
2022-09-01T17:49:01.962Z,3.00
2022-09-01T17:51:31.665Z,3.03
2022-09-01T17:54:06.591Z,6.90
2022-09-01T17:56:42.767Z,2.73
2022-09-01T17:59:15.141Z,2.50
2022-09-01T18:01:50.550Z,2.70
2022-09-01T18:04:48.586Z,2.40
2022-09-01T18:07:33.756Z,2.87
2022-09-01T18:10:03.169Z,2.80
2022-09-01T18:12:35.157Z,2.70
2022-09-01T18:15:08.783Z,2.70
2022-09-01T18:17:40.027Z,2.30
2022-09-01T18:20:11.677Z,2.87
2022-09-01T18:22:44.124Z,2.70
2022-09-01T18:25:16.417Z,2.77
2022-09-01T18:27:46.199Z,2.83
2022-09-01T18:30:16.753Z,2.87
2022-09-01T18:32:54.145Z,2.90
2022-09-01T18:35:30.981Z,2.60
2022-09-01T18:38:16.827Z,2.40
2022-09-01T18:40:54.728Z,2.67
2022-09-01T18:43:24.756Z,2.80
2022-09-01T18:45:55.243Z,2.27
2022-09-01T18:48:30.739Z,2.27
2022-09-01T18:51:00.955Z,2.60
2022-09-01T18:53:33.892Z,2.50
2022-09-01T18:56:03.918Z,2.40
2022-09-01T18:58:45.782Z,2.40
2022-09-01T19:01:14.775Z,2.67
2022-09-01T19:03:47.029Z,2.53
2022-09-01T19:06:28.251Z,2.70
2022-09-01T19:09:05.057Z,2.43
2022-09-01T19:11:40.691Z,2.63
2022-09-01T19:14:13.277Z,2.30
2022-09-01T19:16:49.367Z,2.33
2022-09-01T19:19:25.000Z,2.60
2022-09-01T19:21:55.717Z,2.57
2022-09-01T19:24:26.699Z,2.90
2022-09-01T19:26:57.942Z,2.30
2022-09-01T19:29:28.349Z,2.43
2022-09-01T19:31:59.671Z,2.40
2022-09-01T19:34:31.380Z,2.53
2022-09-01T19:37:01.030Z,2.30
2022-09-01T19:39:33.315Z,2.37
2022-09-01T19:42:03.167Z,2.17
2022-09-01T19:44:34.265Z,2.40
2022-09-01T19:47:04.388Z,2.20
2022-09-01T19:49:37.295Z,2.30
2022-09-01T19:52:08.768Z,2.00
2022-09-01T19:54:41.303Z,2.30
2022-09-01T19:57:11.906Z,2.40
2022-09-01T19:59:47.103Z,2.70
2022-09-01T20:02:21.058Z,2.20
2022-09-01T20:04:53.550Z,2.50
2022-09-01T20:07:28.885Z,2.40
2022-09-01T20:10:01.319Z,2.30
2022-09-01T20:12:31.722Z,2.37
2022-09-01T20:15:08.104Z,2.37
2022-09-01T20:17:41.389Z,2.40
2022-09-01T20:20:12.632Z,1.90
2022-09-01T20:22:46.317Z,2.10
2022-09-01T20:25:15.689Z,2.40
2022-09-01T20:27:52.853Z,2.37
2022-09-01T20:30:21.836Z,1.90
2022-09-01T20:32:54.837Z,2.27
2022-09-01T20:35:25.863Z,2.20
2022-09-01T20:37:57.276Z,2.30
2022-09-01T20:40:27.291Z,2.40
2022-09-01T20:43:04.840Z,1.97
2022-09-01T20:45:32.925Z,2.13
2022-09-01T20:48:03.033Z,2.27
2022-09-01T20:50:37.214Z,2.07
2022-09-01T20:53:16.455Z,1.90
2022-09-01T20:55:48.814Z,2.10
2022-09-01T20:58:20.661Z,2.07
2022-09-01T21:00:52.113Z,2.07
2022-09-01T21:03:34.236Z,1.90
2022-09-01T21:06:06.475Z,2.00
2022-09-01T21:08:39.980Z,2.47
2022-09-01T21:11:27.980Z,2.23
2022-09-01T21:14:02.311Z,2.20
2022-09-01T21:16:34.132Z,2.20
2022-09-01T21:19:04.949Z,2.20
2022-09-01T21:21:44.797Z,2.40
2022-09-01T21:24:12.788Z,2.20
2022-09-01T21:26:41.083Z,2.17
2022-09-01T21:29:17.692Z,2.03
2022-09-01T21:31:46.919Z,1.92
2022-09-01T21:34:16.961Z,1.98
2022-09-01T21:36:46.511Z,1.83
2022-09-01T21:39:14.642Z,2.15
2022-09-01T21:41:42.629Z,1.95
2022-09-01T21:44:10.590Z,1.75
2022-09-01T21:46:38.751Z,1.98
2022-09-01T21:49:06.758Z,2.05
2022-09-01T21:51:34.827Z,1.93
2022-09-01T21:54:04.151Z,1.90
2022-09-01T21:56:32.262Z,1.93
2022-09-01T21:59:00.419Z,2.10
2022-09-01T22:01:31.033Z,1.90
2022-09-01T22:03:59.462Z,2.20
2022-09-01T22:06:27.489Z,2.30
2022-09-01T22:08:55.924Z,2.03
2022-09-01T22:11:25.282Z,1.90
2022-09-01T22:13:53.407Z,2.30
2022-09-01T22:16:21.737Z,2.00
2022-09-01T22:18:49.737Z,2.10
2022-09-01T22:21:17.738Z,2.20
2022-09-01T22:23:45.654Z,2.13
2022-09-01T22:26:19.728Z,1.90
2022-09-01T22:28:49.260Z,1.73
2022-09-01T22:31:17.814Z,2.10
2022-09-01T22:33:46.023Z,2.07
2022-09-01T22:36:20.398Z,2.20
2022-09-01T22:38:48.404Z,1.97
2022-09-01T22:41:18.758Z,2.00
2022-09-01T22:43:48.106Z,2.00
2022-09-01T22:46:16.256Z,1.80
2022-09-01T22:48:49.162Z,1.90
2022-09-01T22:51:17.491Z,2.07
2022-09-01T22:53:45.748Z,2.07
2022-09-01T22:56:14.482Z,1.90
2022-09-01T22:58:42.573Z,2.10
2022-09-01T23:01:13.913Z,1.90
2022-09-01T23:03:42.175Z,2.00
2022-09-01T23:06:11.447Z,1.97
2022-09-01T23:08:39.482Z,1.90
2022-09-01T23:11:07.770Z,1.97
2022-09-01T23:13:35.923Z,1.80
2022-09-01T23:16:04.776Z,2.00
2022-09-01T23:18:35.166Z,1.93
2022-09-01T23:21:03.335Z,2.10
2022-09-01T23:23:31.410Z,2.00
2022-09-01T23:26:00.831Z,1.90
2022-09-01T23:28:29.328Z,1.70
2022-09-01T23:30:57.413Z,1.90
2022-09-01T23:33:25.941Z,1.83
2022-09-01T23:35:56.820Z,1.90
2022-09-01T23:38:25.550Z,1.93
2022-09-01T23:40:55.248Z,1.80
2022-09-01T23:43:24.421Z,1.90
2022-09-01T23:45:53.557Z,2.27
2022-09-01T23:48:21.732Z,1.77
2022-09-01T23:50:51.190Z,1.90
2022-09-01T23:53:21.168Z,1.80
2022-09-01T23:55:51.281Z,1.90
2022-09-01T23:58:19.599Z,1.90
